Time;durP1;ratioP1;P1;durP2;ratioP2;P2;SDS_P1;SDS_P2;PMS_P1;PMS_P2;Temp;Humidity;BMP_temperature;BMP_pressure;BME280_temperature;BME280_humidity;BME280_pressure;Samples;Min_cycle;Max_cycle;Signal;HPM_P1;HPM_P2
2021/07/12 00:01:23;;;;;;;;;;;19.80;88.70;;;;;;5074423;28;19920;-72
2021/07/12 00:03:48;;;;;;;;;;;19.80;88.50;;;;;;5074276;28;19931;-72
2021/07/12 00:06:14;;;;;;;;;;;19.70;88.20;;;;;;5074486;28;20539;-71
2021/07/12 00:08:39;;;;;;;;;;;19.70;88.00;;;;;;5074009;28;19921;-73
2021/07/12 00:11:05;;;;;;;;;;;19.70;88.00;;;;;;5074125;28;20033;-72
2021/07/12 00:13:31;;;;;;;;;;;19.70;87.90;;;;;;5073083;28;19917;-72
2021/07/12 00:15:56;;;;;;;;;;;19.60;87.70;;;;;;5073128;28;19951;-70
2021/07/12 00:18:22;;;;;;;;;;;19.50;87.60;;;;;;5073770;28;19978;-71
2021/07/12 00:20:47;;;;;;;;;;;19.50;88.10;;;;;;5074180;28;20322;-72
2021/07/12 00:23:13;;;;;;;;;;;19.40;87.50;;;;;;5074240;28;20513;-73
2021/07/12 00:25:38;;;;;;;;;;;19.30;87.40;;;;;;5073620;28;19923;-73
2021/07/12 00:28:06;;;;;;;;;;;19.30;87.50;;;;;;5073774;28;19921;-70
2021/07/12 00:30:32;;;;;;;;;;;19.30;87.50;;;;;;5073045;28;20323;-67
2021/07/12 00:32:57;;;;;;;;;;;19.20;87.40;;;;;;5073650;28;19950;-71
2021/07/12 00:35:24;;;;;;;;;;;19.10;87.50;;;;;;5072500;28;19917;-72
2021/07/12 00:37:49;;;;;;;;;;;19.20;87.50;;;;;;5038443;28;19920;-72
2021/07/12 00:40:16;;;;;;;;;;;19.10;87.40;;;;;;5074046;28;20506;-72
2021/07/12 00:42:42;;;;;;;;;;;19.10;87.40;;;;;;5073801;28;19927;-72
2021/07/12 00:45:10;;;;;;;;;;;19.00;87.40;;;;;;5073384;28;19924;-71
2021/07/12 00:47:38;;;;;;;;;;;19.00;87.50;;;;;;5073337;28;19928;-71
2021/07/12 00:50:05;;;;;;;;;;;18.90;87.50;;;;;;5071813;28;20113;-72
2021/07/12 00:52:31;;;;;;;;;;;18.80;87.40;;;;;;5072169;28;20011;-72
2021/07/12 00:54:57;;;;;;;;;;;18.80;87.60;;;;;;5071982;28;19978;-72
2021/07/12 00:57:24;;;;;;;;;;;18.80;87.70;;;;;;5072930;28;20576;-73
2021/07/12 00:59:51;;;;;;;;;;;18.70;87.70;;;;;;5071843;28;19951;-72
2021/07/12 01:02:18;;;;;;;;;;;18.70;87.80;;;;;;5072229;28;19916;-72
2021/07/12 01:04:43;;;;;;;;;;;18.70;88.00;;;;;;5073376;28;20449;-72
2021/07/12 01:07:11;;;;;;;;;;;18.60;88.00;;;;;;5055387;28;19943;-72
2021/07/12 01:09:37;;;;;;;;;;;18.60;88.00;;;;;;5072977;28;19916;-72
2021/07/12 01:12:04;;;;;;;;;;;18.60;88.00;;;;;;5072044;28;19923;-73
2021/07/12 01:14:58;;;;;;;;;;;18.60;88.00;;;;;;5071600;28;19916;-67
2021/07/12 01:17:51;;;;;;;;;;;18.50;88.10;;;;;;5057603;28;19940;-73
2021/07/12 01:20:33;;;;;;;;;;;18.50;88.10;;;;;;5073165;28;19924;-71
2021/07/12 01:23:05;;;;;;;;;;;18.50;88.10;;;;;;5071490;28;19924;-72
2021/07/12 01:25:49;;;;;;;;;;;18.40;88.10;;;;;;5073093;28;19916;-72
2021/07/12 01:28:21;;;;;;;;;;;18.40;88.30;;;;;;5071121;28;19952;-72
2021/07/12 01:31:02;;;;;;;;;;;18.40;88.40;;;;;;5073125;28;19916;-72
2021/07/12 01:33:33;;;;;;;;;;;18.30;88.40;;;;;;5071416;28;20254;-72
2021/07/12 01:36:02;;;;;;;;;;;18.30;88.40;;;;;;5071670;28;19916;-72
2021/07/12 01:38:55;;;;;;;;;;;18.30;88.50;;;;;;5070794;28;20288;-72
2021/07/12 01:41:29;;;;;;;;;;;18.20;88.50;;;;;;5071005;28;20381;-71
2021/07/12 01:43:54;;;;;;;;;;;18.20;88.50;;;;;;5071615;28;19917;-72
2021/07/12 01:46:38;;;;;;;;;;;18.20;88.70;;;;;;5070794;28;19913;-70
2021/07/12 01:49:08;;;;;;;;;;;18.10;88.70;;;;;;5071314;28;19929;-72
2021/07/12 01:51:44;;;;;;;;;;;18.00;88.80;;;;;;5070918;28;19917;-71
2021/07/12 01:54:16;;;;;;;;;;;18.10;88.90;;;;;;5054971;28;20333;-72
2021/07/12 01:56:49;;;;;;;;;;;18.00;89.00;;;;;;5070479;28;20326;-71
2021/07/12 01:59:21;;;;;;;;;;;18.00;89.00;;;;;;5071218;28;19920;-71
2021/07/12 02:01:48;;;;;;;;;;;18.00;89.00;;;;;;5072277;28;20406;-68
2021/07/12 02:04:16;;;;;;;;;;;17.90;89.00;;;;;;5072430;28;20369;-73
2021/07/12 02:06:43;;;;;;;;;;;17.90;89.20;;;;;;5071944;28;20438;-72
2021/07/12 02:09:13;;;;;;;;;;;17.80;89.10;;;;;;5071821;28;19917;-72
2021/07/12 02:11:42;;;;;;;;;;;17.80;89.20;;;;;;5070964;28;19916;-72
2021/07/12 02:14:09;;;;;;;;;;;17.70;89.30;;;;;;5071888;28;19978;-71
2021/07/12 02:16:36;;;;;;;;;;;17.70;89.40;;;;;;5070862;28;19985;-72
2021/07/12 02:19:06;;;;;;;;;;;17.60;89.60;;;;;;5070342;28;20393;-72
2021/07/12 02:21:34;;;;;;;;;;;17.60;89.70;;;;;;5070903;28;19916;-72
2021/07/12 02:24:06;;;;;;;;;;;17.60;89.80;;;;;;5070713;28;19926;-73
2021/07/12 02:26:35;;;;;;;;;;;17.60;89.90;;;;;;5070218;28;19917;-72
2021/07/12 02:29:04;;;;;;;;;;;17.50;89.90;;;;;;5071994;28;19946;-73
2021/07/12 02:31:34;;;;;;;;;;;17.50;90.00;;;;;;5070163;28;20300;-72
2021/07/12 02:34:00;;;;;;;;;;;17.40;90.00;;;;;;5071900;28;19916;-72
2021/07/12 02:36:27;;;;;;;;;;;17.40;90.10;;;;;;5070657;28;19916;-73
2021/07/12 02:38:56;;;;;;;;;;;17.40;90.20;;;;;;5071175;28;20014;-72
2021/07/12 02:41:24;;;;;;;;;;;17.30;90.20;;;;;;5070654;28;20285;-73
2021/07/12 02:43:52;;;;;;;;;;;17.30;90.20;;;;;;5070258;28;20049;-72
2021/07/12 02:46:22;;;;;;;;;;;17.20;90.20;;;;;;5070490;28;19923;-72
2021/07/12 02:48:49;;;;;;;;;;;17.20;90.20;;;;;;5069672;28;19931;-72
2021/07/12 02:51:15;;;;;;;;;;;17.20;90.30;;;;;;5071717;28;20015;-72
2021/07/12 02:53:54;;;;;;;;;;;17.10;90.30;;;;;;5070066;28;19924;-72
2021/07/12 02:56:21;;;;;;;;;;;17.10;90.40;;;;;;5086976;28;20296;-72
2021/07/12 02:58:46;;;;;;;;;;;17.10;90.50;;;;;;5071537;28;19924;-72
2021/07/12 03:01:12;;;;;;;;;;;17.10;90.50;;;;;;5071449;28;20345;-72
2021/07/12 03:03:37;;;;;;;;;;;17.00;90.50;;;;;;5071440;28;20327;-72
2021/07/12 03:06:12;;;;;;;;;;;17.00;90.50;;;;;;5071702;28;19923;-72
2021/07/12 03:08:49;;;;;;;;;;;17.00;90.60;;;;;;5069568;28;20434;-72
2021/07/12 03:11:15;;;;;;;;;;;16.90;90.60;;;;;;5070570;28;20041;-72
2021/07/12 03:13:47;;;;;;;;;;;16.90;90.60;;;;;;5071252;28;20376;-72
2021/07/12 03:16:13;;;;;;;;;;;16.90;90.70;;;;;;5069701;28;19917;-72
2021/07/12 03:18:40;;;;;;;;;;;16.80;90.70;;;;;;5068857;28;19923;-73
2021/07/12 03:21:07;;;;;;;;;;;16.80;90.70;;;;;;5069921;28;19917;-73
2021/07/12 03:23:34;;;;;;;;;;;16.80;90.80;;;;;;5070828;28;19940;-73
2021/07/12 03:26:06;;;;;;;;;;;16.80;90.90;;;;;;5070192;28;19916;-71
2021/07/12 03:28:34;;;;;;;;;;;16.80;90.90;;;;;;5071540;28;19956;-73
2021/07/12 03:31:00;;;;;;;;;;;16.70;91.00;;;;;;5070313;28;19917;-73
2021/07/12 03:33:29;;;;;;;;;;;16.80;91.10;;;;;;5070522;28;19916;-73
2021/07/12 03:35:58;;;;;;;;;;;16.80;91.10;;;;;;5053747;28;19916;-73
2021/07/12 03:38:36;;;;;;;;;;;16.80;91.10;;;;;;5086651;28;19967;-73
2021/07/12 03:41:04;;;;;;;;;;;16.80;91.10;;;;;;5071241;28;20312;-72
2021/07/12 03:43:30;;;;;;;;;;;16.80;91.10;;;;;;5070313;28;19922;-72
2021/07/12 03:45:57;;;;;;;;;;;16.80;91.10;;;;;;5087146;28;19920;-73
2021/07/12 03:48:35;;;;;;;;;;;16.80;91.10;;;;;;5070838;28;19924;-73
2021/07/12 03:51:04;;;;;;;;;;;16.80;91.20;;;;;;5070477;28;19974;-72
2021/07/12 03:53:34;;;;;;;;;;;16.80;91.20;;;;;;5070003;28;19927;-72
2021/07/12 03:56:01;;;;;;;;;;;16.80;91.40;;;;;;5053498;28;20007;-73
2021/07/12 03:58:27;;;;;;;;;;;16.80;91.30;;;;;;5071180;28;20379;-73
2021/07/12 04:00:52;;;;;;;;;;;16.80;91.30;;;;;;5068925;28;19995;-73
2021/07/12 04:03:18;;;;;;;;;;;16.90;91.30;;;;;;5068109;28;19916;-72
2021/07/12 04:05:43;;;;;;;;;;;16.80;91.40;;;;;;5062543;28;19956;-72
2021/07/12 04:08:09;;;;;;;;;;;16.90;91.40;;;;;;5069155;28;20299;-72
2021/07/12 04:10:37;;;;;;;;;;;16.90;91.40;;;;;;5071229;28;19916;-73
2021/07/12 04:13:02;;;;;;;;;;;17.00;91.40;;;;;;5085641;28;19947;-72
2021/07/12 04:15:28;;;;;;;;;;;17.00;91.50;;;;;;5085134;28;19952;-73
2021/07/12 04:17:53;;;;;;;;;;;17.00;91.50;;;;;;5072390;28;19979;-73
2021/07/12 04:20:19;;;;;;;;;;;17.00;91.50;;;;;;5086185;28;20019;-73
2021/07/12 04:22:44;;;;;;;;;;;17.10;91.60;;;;;;5057577;28;19957;-73
2021/07/12 04:25:11;;;;;;;;;;;17.10;91.60;;;;;;5054112;28;19917;-72
2021/07/12 04:27:37;;;;;;;;;;;17.20;91.60;;;;;;5062826;28;20011;-73
2021/07/12 04:30:07;;;;;;;;;;;17.20;91.60;;;;;;5091473;28;19920;-72
2021/07/12 04:32:32;;;;;;;;;;;17.30;91.70;;;;;;5073599;28;20365;-72
2021/07/12 04:34:59;;;;;;;;;;;17.40;91.70;;;;;;5071817;28;19940;-72
2021/07/12 04:37:24;;;;;;;;;;;17.40;91.70;;;;;;5073166;28;19921;-71
2021/07/12 04:39:50;;;;;;;;;;;17.50;91.70;;;;;;5073905;28;19924;-72
2021/07/12 04:42:15;;;;;;;;;;;17.60;91.70;;;;;;5074003;28;19924;-72
2021/07/12 04:44:41;;;;;;;;;;;17.60;91.70;;;;;;5073650;28;19917;-72
2021/07/12 04:47:07;;;;;;;;;;;17.70;91.70;;;;;;5073669;28;19924;-72
2021/07/12 04:49:33;;;;;;;;;;;17.70;91.70;;;;;;5073844;28;19917;-72
2021/07/12 04:52:00;;;;;;;;;;;17.80;91.70;;;;;;5073563;28;19924;-72
2021/07/12 04:54:26;;;;;;;;;;;17.90;91.80;;;;;;5073762;28;19956;-72
2021/07/12 04:56:51;;;;;;;;;;;18.00;91.70;;;;;;5073195;28;20001;-70
2021/07/12 04:59:23;;;;;;;;;;;18.10;91.80;;;;;;5073545;28;19919;-71
2021/07/12 05:01:49;;;;;;;;;;;18.20;91.80;;;;;;5072438;28;19943;-72
2021/07/12 05:04:15;;;;;;;;;;;18.30;91.80;;;;;;5073108;28;20376;-72
2021/07/12 05:06:40;;;;;;;;;;;18.50;91.80;;;;;;5073698;28;20278;-71
2021/07/12 05:09:06;;;;;;;;;;;18.60;91.70;;;;;;5072765;28;19916;-69
2021/07/12 05:11:31;;;;;;;;;;;18.70;91.70;;;;;;5073283;28;19924;-63
2021/07/12 05:13:57;;;;;;;;;;;18.80;91.60;;;;;;5073596;28;19916;-64
2021/07/12 05:16:24;;;;;;;;;;;19.00;91.60;;;;;;5071617;28;19924;-64
2021/07/12 05:18:50;;;;;;;;;;;19.10;91.50;;;;;;5071408;28;20393;-64
2021/07/12 05:21:15;;;;;;;;;;;19.20;91.50;;;;;;5071904;28;19923;-64
2021/07/12 05:23:41;;;;;;;;;;;19.40;91.40;;;;;;5072744;28;19970;-65
2021/07/12 05:26:07;;;;;;;;;;;19.50;91.20;;;;;;5073244;28;19924;-65
2021/07/12 05:28:33;;;;;;;;;;;19.60;91.00;;;;;;5072261;28;19920;-63
2021/07/12 05:30:58;;;;;;;;;;;19.80;90.80;;;;;;5071687;28;20728;-64
2021/07/12 05:33:24;;;;;;;;;;;19.90;90.60;;;;;;5072579;28;20289;-64
2021/07/12 05:35:50;;;;;;;;;;;20.10;90.40;;;;;;5071754;28;19936;-64
2021/07/12 05:38:15;;;;;;;;;;;20.20;90.20;;;;;;5072365;28;19931;-65
2021/07/12 05:40:41;;;;;;;;;;;20.30;90.10;;;;;;5071552;28;19923;-64
2021/07/12 05:43:08;;;;;;;;;;;20.50;90.00;;;;;;5072467;28;20434;-65
2021/07/12 05:45:34;;;;;;;;;;;20.60;89.60;;;;;;5072739;28;19967;-65
2021/07/12 05:48:00;;;;;;;;;;;20.80;89.20;;;;;;5072314;28;20377;-64
2021/07/12 05:50:25;;;;;;;;;;;21.10;89.20;;;;;;5072009;28;19921;-65
2021/07/12 05:52:51;;;;;;;;;;;21.80;90.10;;;;;;5072587;28;19916;-65
2021/07/12 05:55:16;;;;;;;;;;;22.90;91.50;;;;;;5072279;28;19916;-65
2021/07/12 05:57:42;;;;;;;;;;;24.20;91.10;;;;;;5072154;28;19923;-64
2021/07/12 06:00:09;;;;;;;;;;;25.40;90.50;;;;;;5071940;28;20403;-64
2021/07/12 06:02:41;;;;;;;;;;;26.60;88.50;;;;;;5071984;28;20373;-64
2021/07/12 06:05:07;;;;;;;;;;;27.40;83.30;;;;;;5072047;28;19920;-66
2021/07/12 06:07:34;;;;;;;;;;;27.90;80.90;;;;;;5071510;28;19920;-65
2021/07/12 06:09:59;;;;;;;;;;;28.60;79.90;;;;;;5071985;28;19917;-66
2021/07/12 06:12:25;;;;;;;;;;;29.30;77.70;;;;;;5072087;28;19916;-65
2021/07/12 06:14:50;;;;;;;;;;;30.00;75.30;;;;;;5071764;28;19916;-66
2021/07/12 06:17:16;;;;;;;;;;;30.60;70.80;;;;;;5070562;28;20451;-64
2021/07/12 06:19:41;;;;;;;;;;;30.80;66.40;;;;;;5071974;28;19920;-65
2021/07/12 06:22:07;;;;;;;;;;;31.10;66.10;;;;;;5071558;28;19916;-64
2021/07/12 06:24:33;;;;;;;;;;;31.60;64.80;;;;;;5071897;28;20380;-66
2021/07/12 06:26:59;;;;;;;;;;;32.20;63.10;;;;;;5071213;28;19920;-66
2021/07/12 06:29:24;;;;;;;;;;;32.70;60.90;;;;;;5071064;28;19920;-65
2021/07/12 06:31:51;;;;;;;;;;;32.90;57.10;;;;;;5071746;28;19920;-65
2021/07/12 06:34:17;;;;;;;;;;;32.90;55.10;;;;;;5071454;28;20050;-65
2021/07/12 06:36:43;;;;;;;;;;;32.90;54.80;;;;;;5070345;28;19917;-65
2021/07/12 06:39:08;;;;;;;;;;;33.10;52.90;;;;;;5071786;28;19924;-64
2021/07/12 06:41:34;;;;;;;;;;;33.30;52.20;;;;;;5071204;28;19996;-64
2021/07/12 06:43:59;;;;;;;;;;;33.50;51.20;;;;;;5071724;28;19917;-65
2021/07/12 06:46:30;;;;;;;;;;;33.70;50.50;;;;;;5069804;28;19916;-64
2021/07/12 06:48:59;;;;;;;;;;;34.00;50.00;;;;;;5069364;28;20259;-64
2021/07/12 06:51:25;;;;;;;;;;;34.70;49.20;;;;;;5071461;28;20000;-65
2021/07/12 06:53:50;;;;;;;;;;;35.00;47.10;;;;;;5071476;28;20358;-64
2021/07/12 06:56:16;;;;;;;;;;;35.20;47.20;;;;;;5071683;28;20003;-65
2021/07/12 06:58:42;;;;;;;;;;;35.80;46.80;;;;;;5070889;28;19916;-66
2021/07/12 07:01:07;;;;;;;;;;;36.30;45.70;;;;;;5071331;28;19952;-66
2021/07/12 07:03:33;;;;;;;;;;;36.70;44.60;;;;;;5071710;28;19913;-64
2021/07/12 07:05:58;;;;;;;;;;;37.00;43.10;;;;;;5070989;28;19916;-66
2021/07/12 07:08:34;;;;;;;;;;;37.50;42.80;;;;;;5071147;28;20220;-65
2021/07/12 07:11:00;;;;;;;;;;;38.00;42.00;;;;;;5070867;28;19916;-66
2021/07/12 07:13:26;;;;;;;;;;;38.40;40.30;;;;;;5071315;28;19999;-64
2021/07/12 07:15:55;;;;;;;;;;;38.70;40.20;;;;;;5067000;28;20003;-66
2021/07/12 07:18:21;;;;;;;;;;;39.20;39.90;;;;;;5070590;28;19959;-68
2021/07/12 07:20:46;;;;;;;;;;;39.70;39.10;;;;;;5069624;28;19970;-70
2021/07/12 07:23:12;;;;;;;;;;;40.10;37.60;;;;;;5063753;28;19964;-69
2021/07/12 07:25:39;;;;;;;;;;;40.30;37.20;;;;;;5070353;28;19912;-70
2021/07/12 07:28:05;;;;;;;;;;;40.60;37.00;;;;;;5071458;28;20445;-69
2021/07/12 07:30:31;;;;;;;;;;;40.80;35.70;;;;;;5070998;28;20183;-68
2021/07/12 07:32:57;;;;;;;;;;;41.10;35.50;;;;;;5071338;28;19928;-69
2021/07/12 07:35:23;;;;;;;;;;;41.30;34.70;;;;;;5069957;28;20276;-69
2021/07/12 07:37:48;;;;;;;;;;;41.60;34.90;;;;;;5068810;28;19955;-69
2021/07/12 07:40:16;;;;;;;;;;;42.10;34.90;;;;;;5087408;28;19962;-69
2021/07/12 07:42:41;;;;;;;;;;;42.80;33.90;;;;;;5074818;28;19916;-69
2021/07/12 07:45:09;;;;;;;;;;;42.80;32.60;;;;;;5073651;28;20054;-69
2021/07/12 07:47:34;;;;;;;;;;;42.70;32.50;;;;;;5073704;28;19981;-71
2021/07/12 07:50:00;;;;;;;;;;;43.00;32.80;;;;;;5074333;28;19995;-69
2021/07/12 07:52:26;;;;;;;;;;;43.40;31.70;;;;;;5074991;28;19996;-69
2021/07/12 07:54:51;;;;;;;;;;;43.80;31.90;;;;;;5074964;28;19921;-68
2021/07/12 07:57:17;;;;;;;;;;;44.20;31.20;;;;;;5074401;28;19916;-69
2021/07/12 07:59:43;;;;;;;;;;;44.50;30.80;;;;;;5074271;28;19989;-69
2021/07/12 08:02:09;;;;;;;;;;;44.80;30.60;;;;;;5073103;28;19927;-69
2021/07/12 08:04:34;;;;;;;;;;;45.20;30.00;;;;;;5073263;28;20340;-70
2021/07/12 08:07:00;;;;;;;;;;;45.10;29.50;;;;;;5073739;28;19913;-69
2021/07/12 08:09:25;;;;;;;;;;;45.30;29.70;;;;;;5074089;28;19916;-69
2021/07/12 08:11:51;;;;;;;;;;;45.70;29.70;;;;;;5074368;28;20379;-69
2021/07/12 08:14:18;;;;;;;;;;;46.10;29.10;;;;;;5074878;28;20335;-70
2021/07/12 08:16:44;;;;;;;;;;;46.30;28.80;;;;;;5073911;28;19917;-70
2021/07/12 08:19:10;;;;;;;;;;;46.20;28.10;;;;;;5074574;28;19916;-69
2021/07/12 08:21:35;;;;;;;;;;;46.10;28.10;;;;;;5073995;28;19939;-69
2021/07/12 08:24:01;;;;;;;;;;;46.00;28.00;;;;;;5074253;28;20280;-69
2021/07/12 08:26:26;;;;;;;;;;;46.00;28.00;;;;;;5074298;28;19924;-70
2021/07/12 08:28:52;;;;;;;;;;;45.80;27.80;;;;;;5074059;28;19932;-69
2021/07/12 08:31:18;;;;;;;;;;;45.60;28.20;;;;;;5074452;28;20369;-69
2021/07/12 08:33:44;;;;;;;;;;;45.70;27.90;;;;;;5070166;28;19924;-69
2021/07/12 08:36:09;;;;;;;;;;;45.80;28.70;;;;;;5073560;28;19917;-69
2021/07/12 08:38:35;;;;;;;;;;;46.40;28.80;;;;;;5073792;28;20296;-70
2021/07/12 08:41:01;;;;;;;;;;;47.10;28.50;;;;;;5073606;28;19916;-69
2021/07/12 08:43:26;;;;;;;;;;;47.60;27.90;;;;;;5074189;28;19916;-71
2021/07/12 08:45:52;;;;;;;;;;;47.90;27.80;;;;;;5073871;28;19916;-70
2021/07/12 08:48:18;;;;;;;;;;;48.00;27.20;;;;;;5073062;28;19921;-69
2021/07/12 08:50:45;;;;;;;;;;;48.00;26.80;;;;;;5073499;28;20002;-69
2021/07/12 08:53:11;;;;;;;;;;;47.60;26.90;;;;;;5073329;28;19920;-69
2021/07/12 08:55:37;;;;;;;;;;;48.00;27.50;;;;;;5073191;28;19923;-70
2021/07/12 08:58:08;;;;;;;;;;;48.50;26.70;;;;;;5073169;28;19925;-69
2021/07/12 09:00:45;;;;;;;;;;;48.50;26.50;;;;;;5073093;28;19925;-70
2021/07/12 09:03:34;;;;;;;;;;;48.40;26.20;;;;;;5072265;28;19924;-70
2021/07/12 09:06:05;;;;;;;;;;;48.50;26.40;;;;;;5059797;28;19917;-70
2021/07/12 09:08:36;;;;;;;;;;;49.00;26.00;;;;;;5073270;28;20353;-69
2021/07/12 09:11:06;;;;;;;;;;;48.90;25.70;;;;;;5071744;28;19939;-69
2021/07/12 09:13:50;;;;;;;;;;;48.60;25.40;;;;;;5073597;28;20008;-69
2021/07/12 09:16:26;;;;;;;;;;;47.80;25.20;;;;;;5070078;28;20319;-70
2021/07/12 09:19:10;;;;;;;;;;;46.70;25.40;;;;;;5069382;28;19967;-68
2021/07/12 09:21:38;;;;;;;;;;;44.70;25.40;;;;;;5071160;28;20013;-69
2021/07/12 09:24:14;;;;;;;;;;;41.80;26.20;;;;;;5066172;28;19929;-69
2021/07/12 09:26:41;;;;;;;;;;;40.60;28.40;;;;;;5069874;28;19917;-70
2021/07/12 09:29:12;;;;;;;;;;;42.20;30.00;;;;;;5068707;28;19929;-68
2021/07/12 09:31:38;;;;;;;;;;;44.60;29.50;;;;;;5070131;28;20304;-68
2021/07/12 09:34:03;;;;;;;;;;;46.10;27.50;;;;;;5072722;28;19920;-70
2021/07/12 09:36:32;;;;;;;;;;;46.10;27.00;;;;;;5072852;28;19917;-69
2021/07/12 09:39:14;;;;;;;;;;;45.90;26.60;;;;;;5066767;28;19920;-70
2021/07/12 09:41:40;;;;;;;;;;;45.70;26.70;;;;;;5069453;28;19950;-68
2021/07/12 09:44:06;;;;;;;;;;;46.20;27.60;;;;;;5072264;28;19927;-69
2021/07/12 09:46:32;;;;;;;;;;;46.70;27.00;;;;;;5072566;28;19946;-69
2021/07/12 09:49:11;;;;;;;;;;;45.90;26.30;;;;;;5070784;28;19924;-70
2021/07/12 09:51:38;;;;;;;;;;;44.60;26.50;;;;;;5072534;28;19974;-68
2021/07/12 09:54:18;;;;;;;;;;;42.90;26.80;;;;;;5071604;28;19955;-68
2021/07/12 09:56:45;;;;;;;;;;;42.30;27.90;;;;;;5066084;28;19921;-69
2021/07/12 09:59:12;;;;;;;;;;;42.90;29.00;;;;;;5071152;28;20364;-68
2021/07/12 10:01:38;;;;;;;;;;;43.70;28.60;;;;;;5071936;28;19920;-68
2021/07/12 10:04:04;;;;;;;;;;;43.70;27.60;;;;;;5071475;28;19917;-67
2021/07/12 10:06:29;;;;;;;;;;;42.80;28.00;;;;;;5072445;28;19916;-69
2021/07/12 10:08:55;;;;;;;;;;;43.20;28.50;;;;;;5071584;28;19959;-69
2021/07/12 10:11:21;;;;;;;;;;;44.00;28.40;;;;;;5074036;28;19920;-68
2021/07/12 10:13:47;;;;;;;;;;;43.60;27.50;;;;;;5072060;28;20260;-69
2021/07/12 10:16:12;;;;;;;;;;;43.20;28.10;;;;;;5072006;28;19916;-69
2021/07/12 10:18:39;;;;;;;;;;;43.30;27.70;;;;;;5069993;28;19923;-69
2021/07/12 10:21:05;;;;;;;;;;;42.70;27.90;;;;;;5071429;28;19920;-68
2021/07/12 10:23:31;;;;;;;;;;;43.40;28.70;;;;;;5070565;28;19924;-69
2021/07/12 10:25:56;;;;;;;;;;;44.80;28.10;;;;;;5071986;28;20011;-68
2021/07/12 10:28:41;;;;;;;;;;;45.00;27.20;;;;;;5069526;28;19931;-69
2021/07/12 10:31:21;;;;;;;;;;;44.20;27.20;;;;;;5071404;28;19916;-68
2021/07/12 10:33:46;;;;;;;;;;;43.80;27.10;;;;;;5071628;28;19916;-68
2021/07/12 10:36:32;;;;;;;;;;;42.60;26.90;;;;;;5071774;28;19924;-67
2021/07/12 10:38:57;;;;;;;;;;;41.10;27.40;;;;;;5071126;28;19916;-68
2021/07/12 10:41:26;;;;;;;;;;;39.70;28.30;;;;;;5071456;28;19927;-67
2021/07/12 10:43:55;;;;;;;;;;;38.30;28.70;;;;;;5070174;28;19993;-66
2021/07/12 10:46:23;;;;;;;;;;;36.70;29.60;;;;;;5070392;28;19920;-68
2021/07/12 10:48:49;;;;;;;;;;;35.30;30.60;;;;;;5070574;28;19959;-68
2021/07/12 10:51:16;;;;;;;;;;;34.00;32.00;;;;;;5071251;28;20299;-68
2021/07/12 10:53:42;;;;;;;;;;;32.90;33.30;;;;;;5071431;28;19917;-66
2021/07/12 10:56:10;;;;;;;;;;;32.10;34.90;;;;;;5069718;28;19919;-66
2021/07/12 10:58:40;;;;;;;;;;;31.80;36.40;;;;;;5070783;28;19916;-66
2021/07/12 11:01:07;;;;;;;;;;;32.10;36.90;;;;;;5070697;28;19924;-67
2021/07/12 11:03:42;;;;;;;;;;;32.30;37.20;;;;;;5071325;28;19995;-66
2021/07/12 11:06:09;;;;;;;;;;;32.90;38.10;;;;;;5071698;28;19916;-68
2021/07/12 11:08:45;;;;;;;;;;;34.70;38.10;;;;;;5069580;28;19928;-67
2021/07/12 11:11:31;;;;;;;;;;;36.30;37.00;;;;;;5082215;28;19916;-69
2021/07/12 11:14:05;;;;;;;;;;;36.80;34.50;;;;;;5052377;28;19927;-67
2021/07/12 11:16:37;;;;;;;;;;;36.10;33.90;;;;;;5089882;28;19923;-69
2021/07/12 11:19:19;;;;;;;;;;;37.20;36.00;;;;;;5102405;28;19927;-67
2021/07/12 11:21:45;;;;;;;;;;;39.20;34.70;;;;;;5095531;28;19924;-66
2021/07/12 11:24:11;;;;;;;;;;;40.40;32.40;;;;;;5095172;28;20379;-66
2021/07/12 11:26:42;;;;;;;;;;;38.90;30.10;;;;;;5095460;28;20007;-68
2021/07/12 11:29:18;;;;;;;;;;;37.50;32.00;;;;;;5095000;28;19925;-68
2021/07/12 11:31:48;;;;;;;;;;;37.20;32.70;;;;;;5074002;28;20125;-68
2021/07/12 11:34:22;;;;;;;;;;;37.10;33.30;;;;;;5094815;28;20287;-66
2021/07/12 11:36:53;;;;;;;;;;;36.70;32.60;;;;;;5075801;28;19920;-65
2021/07/12 11:39:20;;;;;;;;;;;35.50;33.00;;;;;;5094688;28;19944;-68
2021/07/12 11:41:46;;;;;;;;;;;34.60;34.10;;;;;;5095312;28;19919;-67
2021/07/12 11:44:12;;;;;;;;;;;34.20;35.40;;;;;;5093441;28;19920;-67
2021/07/12 11:46:39;;;;;;;;;;;34.20;36.00;;;;;;5100585;28;19961;-62
2021/07/12 11:49:07;;;;;;;;;;;34.50;36.00;;;;;;5092657;28;19928;-64
2021/07/12 11:51:33;;;;;;;;;;;34.10;35.50;;;;;;5090060;28;19920;-65
2021/07/12 11:53:58;;;;;;;;;;;33.50;36.00;;;;;;5075220;28;19927;-63
2021/07/12 11:56:24;;;;;;;;;;;33.10;36.50;;;;;;5099145;28;19920;-64
2021/07/12 11:58:57;;;;;;;;;;;32.80;37.20;;;;;;5094154;28;19916;-63
2021/07/12 12:01:22;;;;;;;;;;;32.80;37.80;;;;;;5094617;28;19927;-63
2021/07/12 12:04:02;;;;;;;;;;;33.00;37.80;;;;;;5069089;27;19929;-63
2021/07/12 12:06:29;;;;;;;;;;;33.10;38.30;;;;;;5071315;28;19939;-71
2021/07/12 12:08:58;;;;;;;;;;;32.90;38.40;;;;;;5048396;28;19921;-71
2021/07/12 12:11:25;;;;;;;;;;;32.40;38.30;;;;;;5047111;28;19951;-70
2021/07/12 12:13:51;;;;;;;;;;;32.00;38.80;;;;;;5030676;28;20174;-70
2021/07/12 12:16:22;;;;;;;;;;;31.80;39.70;;;;;;5048351;28;19944;-67
2021/07/12 12:18:48;;;;;;;;;;;32.10;40.30;;;;;;5047009;28;19917;-66
2021/07/12 12:21:14;;;;;;;;;;;32.50;40.10;;;;;;5046947;28;19959;-67
2021/07/12 12:23:39;;;;;;;;;;;32.80;39.90;;;;;;5046968;28;19975;-67
2021/07/12 12:26:13;;;;;;;;;;;33.00;39.30;;;;;;5048321;28;19917;-67
2021/07/12 12:28:41;;;;;;;;;;;33.00;38.90;;;;;;5047886;28;19963;-67
2021/07/12 12:31:07;;;;;;;;;;;32.70;39.00;;;;;;5048243;28;19917;-66
2021/07/12 12:33:35;;;;;;;;;;;32.50;39.50;;;;;;5046735;28;19917;-68
2021/07/12 12:36:05;;;;;;;;;;;32.10;39.20;;;;;;5048361;28;19977;-67
2021/07/12 12:38:31;;;;;;;;;;;31.40;39.60;;;;;;5046831;28;19917;-67
2021/07/12 12:41:08;;;;;;;;;;;30.70;40.20;;;;;;5047610;28;19940;-66
2021/07/12 12:43:34;;;;;;;;;;;30.20;41.20;;;;;;5047014;28;20373;-66
2021/07/12 12:46:01;;;;;;;;;;;29.70;42.10;;;;;;5047938;28;20258;-65
2021/07/12 12:48:40;;;;;;;;;;;29.40;42.70;;;;;;5046552;28;20376;-66
2021/07/12 12:51:16;;;;;;;;;;;29.20;43.40;;;;;;5047127;28;19921;-66
2021/07/12 12:53:41;;;;;;;;;;;29.10;43.90;;;;;;5048003;28;19967;-66
2021/07/12 12:56:07;;;;;;;;;;;29.00;44.10;;;;;;5048067;28;20381;-67
2021/07/12 12:58:33;;;;;;;;;;;29.10;44.70;;;;;;5047383;28;19944;-66
2021/07/12 13:01:07;;;;;;;;;;;29.30;45.30;;;;;;5046236;28;19925;-67
2021/07/12 13:03:33;;;;;;;;;;;29.40;45.30;;;;;;5062214;28;20399;-66
2021/07/12 13:06:00;;;;;;;;;;;29.50;45.10;;;;;;5066308;28;19964;-66
2021/07/12 13:08:25;;;;;;;;;;;29.50;45.50;;;;;;5067578;28;19917;-66
2021/07/12 13:10:58;;;;;;;;;;;29.40;45.70;;;;;;5066994;28;19932;-66
2021/07/12 13:13:27;;;;;;;;;;;29.20;46.00;;;;;;5061561;28;19925;-65
2021/07/12 13:15:53;;;;;;;;;;;29.00;46.50;;;;;;5047381;28;19916;-65
2021/07/12 13:18:19;;;;;;;;;;;28.80;46.50;;;;;;5053510;28;19932;-67
2021/07/12 13:20:45;;;;;;;;;;;28.50;46.90;;;;;;5069429;28;19916;-66
2021/07/12 13:23:11;;;;;;;;;;;28.30;47.70;;;;;;5073890;28;19987;-70
2021/07/12 13:25:38;;;;;;;;;;;28.10;48.50;;;;;;5074276;28;19971;-63
2021/07/12 13:28:05;;;;;;;;;;;27.90;49.40;;;;;;5073234;28;19923;-63
2021/07/12 13:30:31;;;;;;;;;;;27.80;50.30;;;;;;5074363;28;19920;-62
2021/07/12 13:33:00;;;;;;;;;;;27.70;51.20;;;;;;5070473;28;20464;-63
2021/07/12 13:35:27;;;;;;;;;;;27.80;52.50;;;;;;5056077;28;19923;-63
2021/07/12 13:37:54;;;;;;;;;;;27.90;52.40;;;;;;5073599;28;20440;-62
2021/07/12 13:40:21;;;;;;;;;;;28.00;53.00;;;;;;5073185;28;19920;-63
2021/07/12 13:42:47;;;;;;;;;;;28.20;53.10;;;;;;5073666;28;19924;-70
2021/07/12 13:45:14;;;;;;;;;;;28.30;53.10;;;;;;5073388;28;19995;-72
2021/07/12 13:47:40;;;;;;;;;;;28.50;53.40;;;;;;5073495;28;20312;-69
2021/07/12 13:50:07;;;;;;;;;;;28.60;53.50;;;;;;5072340;28;19917;-70
2021/07/12 13:52:33;;;;;;;;;;;28.70;53.10;;;;;;5073256;28;20361;-70
2021/07/12 13:54:58;;;;;;;;;;;28.70;53.10;;;;;;5073409;28;19940;-70
2021/07/12 13:57:24;;;;;;;;;;;28.80;52.90;;;;;;5073549;28;19921;-70
2021/07/12 13:59:50;;;;;;;;;;;28.80;52.80;;;;;;5071674;28;19912;-71
2021/07/12 14:02:16;;;;;;;;;;;28.90;52.60;;;;;;5073064;28;19929;-70
2021/07/12 14:04:43;;;;;;;;;;;29.00;52.00;;;;;;5071702;28;20015;-70
2021/07/12 14:07:08;;;;;;;;;;;29.00;51.60;;;;;;5072998;28;19916;-70
2021/07/12 14:09:35;;;;;;;;;;;29.00;51.30;;;;;;5073258;28;19927;-70
2021/07/12 14:12:01;;;;;;;;;;;29.00;51.20;;;;;;5072661;28;19961;-70
2021/07/12 14:14:27;;;;;;;;;;;29.00;50.90;;;;;;5073187;28;19923;-70
2021/07/12 14:16:52;;;;;;;;;;;29.00;50.90;;;;;;5071967;28;20296;-69
2021/07/12 14:19:18;;;;;;;;;;;29.00;50.60;;;;;;5065371;28;19925;-70
2021/07/12 14:21:43;;;;;;;;;;;29.00;50.40;;;;;;5069138;28;19925;-70